createdAt,value
2022-11-08T00:00:44.635Z,99033.53
2022-11-08T00:03:13.017Z,99037.41
2022-11-08T00:05:58.827Z,99030.28
2022-11-08T00:08:44.530Z,99030.47
2022-11-08T00:11:30.289Z,99039.00
2022-11-08T00:13:58.691Z,99034.75
2022-11-08T00:16:29.692Z,99020.84
2022-11-08T00:18:58.666Z,99021.53
2022-11-08T00:21:28.031Z,99016.50
2022-11-08T00:23:59.493Z,99012.38
2022-11-08T00:26:29.317Z,99015.66
2022-11-08T00:28:57.612Z,99010.31
2022-11-08T00:31:27.674Z,99015.97
2022-11-08T00:33:56.565Z,99020.47
2022-11-08T00:36:24.756Z,99015.41
2022-11-08T00:38:53.296Z,99012.53
2022-11-08T00:41:21.539Z,99018.53
2022-11-08T00:43:49.895Z,99013.81
2022-11-08T00:46:18.314Z,99009.47
2022-11-08T00:48:48.177Z,99011.38
2022-11-08T00:51:18.612Z,99011.16
2022-11-08T00:53:46.743Z,99019.56
2022-11-08T00:56:19.547Z,99016.50
2022-11-08T00:58:47.991Z,99015.97
2022-11-08T01:01:19.864Z,99010.94
2022-11-08T01:03:50.816Z,99012.25
2022-11-08T01:06:22.005Z,99013.63
2022-11-08T01:08:50.987Z,99007.09
2022-11-08T01:11:22.079Z,99010.25
2022-11-08T01:13:51.314Z,99011.41
2022-11-08T01:16:22.038Z,99014.06
2022-11-08T01:18:53.639Z,99017.28
2022-11-08T01:21:25.403Z,99020.47
2022-11-08T01:23:54.823Z,99016.09
2022-11-08T01:26:25.220Z,99021.28
2022-11-08T01:28:54.108Z,99014.09
2022-11-08T01:31:25.857Z,99017.50
2022-11-08T01:33:56.899Z,99009.63
2022-11-08T01:36:27.858Z,98996.41
2022-11-08T01:38:56.453Z,98998.78
2022-11-08T01:41:27.612Z,99002.97
2022-11-08T01:43:57.278Z,98994.34
2022-11-08T01:46:46.871Z,98997.41
2022-11-08T01:49:48.277Z,98990.84
2022-11-08T01:52:26.443Z,98987.47
2022-11-08T01:55:10.157Z,98997.31
2022-11-08T01:57:44.368Z,98991.53
2022-11-08T02:00:14.710Z,98991.38
2022-11-08T02:02:45.165Z,98991.53
2022-11-08T02:05:27.669Z,98985.88
2022-11-08T02:08:00.614Z,98975.56
2022-11-08T02:10:35.028Z,98979.38
2022-11-08T02:13:05.514Z,98972.66
2022-11-08T02:15:37.696Z,98974.28
2022-11-08T02:18:07.772Z,98967.84
2022-11-08T02:20:37.639Z,98974.06
2022-11-08T02:23:17.302Z,98980.97
2022-11-08T02:25:47.750Z,98969.25
2022-11-08T02:28:16.749Z,98968.81
2022-11-08T02:30:45.398Z,98969.00
2022-11-08T02:33:19.480Z,98970.38
2022-11-08T02:35:51.150Z,98965.22
2022-11-08T02:38:20.628Z,98958.53
2022-11-08T02:40:52.570Z,98959.09
2022-11-08T02:43:21.387Z,98968.06
2022-11-08T02:45:51.015Z,98963.88
2022-11-08T02:48:20.883Z,98955.31
2022-11-08T02:50:51.292Z,98954.88
2022-11-08T02:53:20.172Z,98952.41
2022-11-08T02:55:48.421Z,98949.00
2022-11-08T02:58:18.656Z,98946.34
2022-11-08T03:00:47.072Z,98940.72
2022-11-08T03:03:16.235Z,98941.00
2022-11-08T03:05:44.938Z,98939.94
2022-11-08T03:08:13.391Z,98937.50
2022-11-08T03:10:47.694Z,98937.00
2022-11-08T03:13:18.562Z,98943.53
2022-11-08T03:15:46.724Z,98934.47
2022-11-08T03:18:15.417Z,98934.81
2022-11-08T03:20:46.006Z,98924.84
2022-11-08T03:23:15.088Z,98934.91
2022-11-08T03:25:44.429Z,98930.22
2022-11-08T03:28:12.490Z,98927.50
2022-11-08T03:30:42.825Z,98927.03
2022-11-08T03:33:11.474Z,98925.88
2022-11-08T03:35:40.133Z,98928.59
2022-11-08T03:38:08.635Z,98922.00
2022-11-08T03:40:37.669Z,98918.16
2022-11-08T03:43:05.842Z,98918.25
2022-11-08T03:45:34.388Z,98920.91
2022-11-08T03:48:05.144Z,98910.88
2022-11-08T03:50:33.539Z,98912.03
2022-11-08T03:53:02.053Z,98910.44
2022-11-08T03:55:32.094Z,98913.25
2022-11-08T03:58:00.568Z,98904.88
2022-11-08T04:00:30.681Z,98902.38
2022-11-08T04:03:05.180Z,98896.38
2022-11-08T04:05:36.411Z,98893.16
2022-11-08T04:08:07.160Z,98892.13
2022-11-08T04:10:37.864Z,98890.53
2022-11-08T04:13:23.552Z,98887.59
2022-11-08T04:15:56.319Z,98885.97
2022-11-08T04:18:43.859Z,98885.41
2022-11-08T04:21:22.845Z,98882.59
2022-11-08T04:23:52.831Z,98880.22
2022-11-08T04:26:23.324Z,98876.47
2022-11-08T04:28:51.791Z,98880.97
2022-11-08T04:31:23.330Z,98875.22
2022-11-08T04:33:53.026Z,98874.28
2022-11-08T04:36:21.965Z,98873.44
2022-11-08T04:38:51.022Z,98864.75
2022-11-08T04:41:21.799Z,98862.66
2022-11-08T04:43:51.992Z,98859.84
2022-11-08T04:46:22.452Z,98861.63
2022-11-08T04:48:54.695Z,98862.56
2022-11-08T04:51:26.938Z,98860.41
2022-11-08T04:53:57.753Z,98848.66
2022-11-08T04:56:27.744Z,98846.88
2022-11-08T04:58:57.369Z,98850.78
2022-11-08T05:01:27.961Z,98849.25
2022-11-08T05:03:58.472Z,98843.91
2022-11-08T05:06:28.699Z,98849.56
2022-11-08T05:08:58.531Z,98840.03
2022-11-08T05:11:29.227Z,98845.06
2022-11-08T05:13:58.016Z,98839.47
2022-11-08T05:16:27.895Z,98843.53
2022-11-08T05:19:01.567Z,98834.19
2022-11-08T05:21:47.477Z,98822.03
2022-11-08T05:24:17.916Z,98831.66
2022-11-08T05:26:49.333Z,98827.78
2022-11-08T05:29:18.476Z,98830.69
2022-11-08T05:31:46.823Z,98829.22
2022-11-08T05:34:16.779Z,98825.13
2022-11-08T05:36:44.902Z,98820.22
2022-11-08T05:39:14.134Z,98819.50
2022-11-08T05:41:42.345Z,98830.16
2022-11-08T05:44:11.055Z,98829.69
2022-11-08T05:46:39.595Z,98828.34
2022-11-08T05:49:07.783Z,98817.31
2022-11-08T05:51:39.607Z,98814.69
2022-11-08T05:54:08.278Z,98808.19
2022-11-08T05:56:37.135Z,98804.41
2022-11-08T05:59:06.981Z,98803.41
2022-11-08T06:01:36.724Z,98797.00
2022-11-08T06:04:04.911Z,98798.69
2022-11-08T06:06:33.352Z,98802.06
2022-11-08T06:09:03.956Z,98786.72
2022-11-08T06:11:32.516Z,98788.97
2022-11-08T06:14:03.321Z,98792.53
2022-11-08T06:16:31.681Z,98786.78
2022-11-08T06:19:02.596Z,98776.25
2022-11-08T06:21:31.465Z,98797.84
2022-11-08T06:24:00.027Z,98783.84
2022-11-08T06:26:29.755Z,98778.78
2022-11-08T06:28:58.248Z,98783.50
2022-11-08T06:31:26.631Z,98790.00
2022-11-08T06:33:55.340Z,98790.94
2022-11-08T06:36:24.029Z,98796.72
2022-11-08T06:38:56.026Z,98793.63
2022-11-08T06:41:27.450Z,98810.13
2022-11-08T06:43:57.229Z,98809.31
2022-11-08T06:46:25.384Z,98815.69
2022-11-08T06:48:54.986Z,98814.06
2022-11-08T06:51:23.795Z,98818.38
2022-11-08T06:53:52.522Z,98823.22
2022-11-08T06:56:20.661Z,98827.84
2022-11-08T06:58:52.935Z,98820.03
2022-11-08T07:01:22.952Z,98808.75
2022-11-08T07:03:51.235Z,98811.16
2022-11-08T07:06:28.150Z,98813.13
2022-11-08T07:08:59.627Z,98816.09
2022-11-08T07:11:28.251Z,98820.47
2022-11-08T07:13:56.500Z,98801.53
2022-11-08T07:16:26.054Z,98812.06
2022-11-08T07:18:55.893Z,98801.97
2022-11-08T07:21:24.828Z,98801.13
2022-11-08T07:23:53.543Z,98812.72
2022-11-08T07:26:25.686Z,98802.44
2022-11-08T07:28:54.051Z,98809.78
2022-11-08T07:31:24.023Z,98814.53
2022-11-08T07:33:53.828Z,98822.19
2022-11-08T07:36:22.343Z,98824.94
2022-11-08T07:38:50.815Z,98826.19
2022-11-08T07:41:19.356Z,98830.16
2022-11-08T07:43:49.408Z,98819.59
2022-11-08T07:46:18.195Z,98810.53
2022-11-08T07:48:46.877Z,98826.00
2022-11-08T07:51:16.787Z,98823.28
2022-11-08T07:53:46.193Z,98826.75
2022-11-08T07:56:14.673Z,98822.03
2022-11-08T07:58:43.175Z,98832.16
2022-11-08T08:01:14.079Z,98826.47
2022-11-08T08:03:42.488Z,98831.19
2022-11-08T08:06:11.255Z,98844.00
2022-11-08T08:08:41.231Z,98847.50
2022-11-08T08:11:09.719Z,98847.97
2022-11-08T08:13:38.486Z,98838.53
2022-11-08T08:16:07.268Z,98841.22
2022-11-08T08:18:35.905Z,98838.03
2022-11-08T08:21:04.535Z,98850.25
2022-11-08T08:23:32.707Z,98839.09
2022-11-08T08:26:03.731Z,98840.13
2022-11-08T08:28:33.019Z,98842.75
2022-11-08T08:31:03.485Z,98825.84
2022-11-08T08:33:32.545Z,98823.00
2022-11-08T08:36:02.523Z,98815.50
2022-11-08T08:38:31.369Z,98810.75
2022-11-08T08:41:00.294Z,98810.19
2022-11-08T08:43:32.688Z,98800.56
2022-11-08T08:46:01.966Z,98798.88
2022-11-08T08:48:30.734Z,98796.97
2022-11-08T08:51:00.030Z,98794.56
2022-11-08T08:53:28.736Z,98784.94
2022-11-08T08:55:58.591Z,98786.44
2022-11-08T08:58:27.539Z,98779.97
2022-11-08T09:03:50.725Z,98788.97
2022-11-08T09:06:18.859Z,98790.53
2022-11-08T09:08:47.491Z,98784.34
2022-11-08T09:11:18.054Z,98776.47
2022-11-08T09:13:46.565Z,98780.19
2022-11-08T09:16:18.873Z,98767.13
2022-11-08T09:18:48.099Z,98770.69
2022-11-08T09:21:16.348Z,98764.69
2022-11-08T09:23:46.237Z,98761.56
2022-11-08T09:26:14.855Z,98762.94
2022-11-08T09:28:43.660Z,98752.50
2022-11-08T09:31:14.221Z,98749.81
2022-11-08T09:33:44.245Z,98753.47
2022-11-08T09:36:16.291Z,98738.06
2022-11-08T09:38:44.795Z,98738.19
2022-11-08T09:41:40.215Z,98735.06
2022-11-08T09:44:23.188Z,98724.91
2022-11-08T09:46:55.600Z,98730.00
2022-11-08T09:49:31.282Z,98726.25
2022-11-08T09:52:01.706Z,98719.50
2022-11-08T09:54:36.755Z,98727.34
2022-11-08T09:57:07.787Z,98722.88
2022-11-08T09:59:42.805Z,98721.91
2022-11-08T10:02:18.369Z,98721.16
2022-11-08T10:04:54.708Z,98711.69
2022-11-08T10:07:33.827Z,98712.16
2022-11-08T10:10:28.800Z,98716.66
2022-11-08T10:13:06.289Z,98703.06
2022-11-08T10:15:43.899Z,98691.53
2022-11-08T10:18:41.711Z,98697.44
2022-11-08T10:21:23.348Z,98685.00
2022-11-08T10:24:01.457Z,98678.44
2022-11-08T10:26:37.255Z,98682.16
2022-11-08T10:29:10.634Z,98687.22
2022-11-08T10:31:43.126Z,98674.03
2022-11-08T10:34:16.800Z,98669.13
2022-11-08T10:36:48.456Z,98660.41
2022-11-08T10:39:21.700Z,98657.19
2022-11-08T10:41:58.565Z,98667.69
2022-11-08T10:44:28.223Z,98659.81
2022-11-08T10:47:01.137Z,98660.50
2022-11-08T10:49:33.790Z,98650.19
2022-11-08T10:52:20.446Z,98660.31
2022-11-08T10:54:56.760Z,98668.50
2022-11-08T10:57:37.875Z,98669.75
2022-11-08T11:00:27.593Z,98661.34
2022-11-08T11:02:58.499Z,98672.41
2022-11-08T11:05:31.960Z,98662.81
2022-11-08T11:08:17.783Z,98652.34
2022-11-08T11:10:48.261Z,98658.88
2022-11-08T11:13:22.919Z,98662.84
2022-11-08T11:15:53.950Z,98651.25
2022-11-08T11:18:33.125Z,98668.31
2022-11-08T11:21:05.233Z,98663.41
2022-11-08T11:23:44.748Z,98658.91
2022-11-08T11:26:29.385Z,98645.78
2022-11-08T11:29:08.462Z,98643.81
2022-11-08T11:31:38.639Z,98645.88
2022-11-08T11:34:48.336Z,98647.66
2022-11-08T11:37:26.714Z,98632.66
2022-11-08T11:40:05.945Z,98624.81
2022-11-08T11:42:47.807Z,98621.94
2022-11-08T11:45:21.634Z,98632.84
2022-11-08T11:47:53.757Z,98625.97
2022-11-08T11:50:32.703Z,98618.25
2022-11-08T11:53:06.999Z,98627.75
2022-11-08T11:55:50.883Z,98626.19
2022-11-08T11:58:44.582Z,98625.38
2022-11-08T12:01:23.988Z,98618.78
2022-11-08T12:04:23.287Z,98618.75
2022-11-08T12:07:03.709Z,98610.56
2022-11-08T12:09:46.478Z,98603.56
2022-11-08T12:12:27.028Z,98614.22
2022-11-08T12:15:01.707Z,98609.47
2022-11-08T12:17:53.069Z,98615.63
2022-11-08T12:20:45.169Z,98614.72
2022-11-08T12:23:32.839Z,98618.63
2022-11-08T12:26:08.418Z,98605.06
2022-11-08T12:28:51.101Z,98611.78
2022-11-08T12:31:28.858Z,98605.84
2022-11-08T12:34:11.636Z,98599.41
2022-11-08T12:36:48.789Z,98608.22
2022-11-08T12:39:32.735Z,98599.59
2022-11-08T12:42:24.411Z,98597.22
2022-11-08T12:45:23.199Z,98605.06
2022-11-08T12:47:57.975Z,98604.88
2022-11-08T12:50:34.817Z,98607.47
2022-11-08T12:53:27.570Z,98590.72
2022-11-08T12:55:58.556Z,98588.38
2022-11-08T12:58:37.529Z,98580.25
2022-11-08T13:01:13.415Z,98581.19
2022-11-08T13:04:08.260Z,98569.16
2022-11-08T13:06:47.416Z,98586.44
2022-11-08T13:09:25.042Z,98581.88
2022-11-08T13:12:03.374Z,98580.78
2022-11-08T13:14:34.982Z,98572.28
2022-11-08T13:17:33.095Z,98572.03
2022-11-08T13:20:05.902Z,98573.06
2022-11-08T13:22:45.426Z,98570.81
2022-11-08T13:25:43.379Z,98560.88
2022-11-08T13:28:41.430Z,98560.84
2022-11-08T13:31:28.897Z,98554.94
2022-11-08T13:34:38.175Z,98552.38
2022-11-08T13:37:36.611Z,98562.47
2022-11-08T13:40:28.394Z,98563.44
2022-11-08T13:43:21.169Z,98561.03
2022-11-08T13:45:50.171Z,98554.66
2022-11-08T13:48:37.127Z,98563.78
2022-11-08T13:51:28.246Z,98563.19
2022-11-08T13:54:01.369Z,98570.97
2022-11-08T13:56:48.779Z,98571.47
2022-11-08T13:59:59.249Z,98570.25
2022-11-08T14:02:37.848Z,98575.53
2022-11-08T14:05:22.868Z,98577.06
2022-11-08T14:08:14.991Z,98574.94
2022-11-08T14:11:10.387Z,98576.25
2022-11-08T14:14:02.586Z,98575.63
2022-11-08T14:16:38.671Z,98569.75
2022-11-08T14:19:24.957Z,98567.31
2022-11-08T14:21:57.498Z,98564.31
2022-11-08T14:24:30.613Z,98554.56
2022-11-08T14:26:58.946Z,98557.03
2022-11-08T14:29:27.415Z,98557.41
2022-11-08T14:32:06.983Z,98551.91
2022-11-08T14:34:37.768Z,98548.84
2022-11-08T14:37:15.300Z,98552.25
2022-11-08T14:39:48.116Z,98551.22
2022-11-08T14:42:22.914Z,98549.34
2022-11-08T14:44:54.323Z,98543.03
2022-11-08T14:47:28.786Z,98544.19
2022-11-08T14:49:57.085Z,98548.66
2022-11-08T14:52:31.162Z,98542.00
2022-11-08T14:55:06.058Z,98551.03
2022-11-08T14:57:37.305Z,98553.94
2022-11-08T15:00:15.559Z,98555.13
2022-11-08T15:02:47.327Z,98557.81
2022-11-08T15:05:36.223Z,98552.34
2022-11-08T15:08:08.649Z,98551.84
2022-11-08T15:10:38.994Z,98542.69
2022-11-08T15:13:11.921Z,98539.81
2022-11-08T15:15:40.651Z,98545.34
2022-11-08T15:18:17.489Z,98546.63
2022-11-08T15:21:03.859Z,98545.41
2022-11-08T15:23:42.894Z,98542.16
2022-11-08T15:26:25.863Z,98538.28
2022-11-08T15:29:02.775Z,98532.97
2022-11-08T15:31:34.045Z,98521.56
2022-11-08T15:34:03.054Z,98516.59
2022-11-08T15:36:35.857Z,98528.09
2022-11-08T15:39:07.184Z,98527.50
2022-11-08T15:41:40.960Z,98517.84
2022-11-08T15:44:17.550Z,98538.53
2022-11-08T15:46:45.825Z,98547.72
2022-11-08T15:49:21.135Z,98549.88
2022-11-08T15:51:50.804Z,98541.84
2022-11-08T15:54:20.483Z,98543.59
2022-11-08T15:56:53.669Z,98536.91
2022-11-08T15:59:24.975Z,98543.19
2022-11-08T16:01:57.474Z,98538.34
2022-11-08T16:04:29.103Z,98526.53
2022-11-08T16:06:57.697Z,98525.19
2022-11-08T16:09:26.148Z,98527.56
2022-11-08T16:11:57.109Z,98526.66
2022-11-08T16:14:26.719Z,98520.22
2022-11-08T16:16:55.210Z,98518.97
2022-11-08T16:19:26.167Z,98510.78
2022-11-08T16:21:54.394Z,98522.09
2022-11-08T16:24:23.696Z,98513.28
2022-11-08T16:26:52.180Z,98501.97
2022-11-08T16:29:24.464Z,98500.00
2022-11-08T16:31:53.004Z,98500.00
2022-11-08T16:34:21.717Z,98494.94
2022-11-08T16:36:52.224Z,98511.34
2022-11-08T16:39:26.424Z,98501.25
2022-11-08T16:41:54.663Z,98503.31
2022-11-08T16:44:24.550Z,98503.50
2022-11-08T16:46:55.206Z,98505.81
2022-11-08T16:49:27.266Z,98497.94
2022-11-08T16:51:56.826Z,98493.00
2022-11-08T16:54:28.744Z,98491.19
2022-11-08T16:57:20.845Z,98491.91
2022-11-08T16:59:48.586Z,98496.50
2022-11-08T17:02:22.873Z,98503.78
2022-11-08T17:04:51.707Z,98503.03
2022-11-08T17:07:21.355Z,98499.44
2022-11-08T17:09:49.923Z,98500.38
2022-11-08T17:12:19.795Z,98503.72
2022-11-08T17:14:49.758Z,98496.81
2022-11-08T17:17:18.154Z,98485.16
2022-11-08T17:19:46.659Z,98489.81
2022-11-08T17:22:15.457Z,98477.78
2022-11-08T17:24:43.598Z,98489.03
2022-11-08T17:27:13.485Z,98502.41
2022-11-08T17:29:42.046Z,98494.81
2022-11-08T17:32:12.195Z,98492.28
2022-11-08T17:34:41.872Z,98497.41
2022-11-08T17:37:10.539Z,98507.84
2022-11-08T17:39:39.098Z,98510.94
2022-11-08T17:42:07.924Z,98504.84
2022-11-08T17:44:36.719Z,98518.34
2022-11-08T17:47:05.026Z,98514.13
2022-11-08T17:49:42.725Z,98515.59
2022-11-08T17:52:12.378Z,98511.13
2022-11-08T17:54:40.904Z,98514.41
2022-11-08T17:57:11.034Z,98507.38
2022-11-08T17:59:40.079Z,98510.88
2022-11-08T18:02:10.842Z,98519.44
2022-11-08T18:04:41.203Z,98506.28
2022-11-08T18:07:10.133Z,98513.44
2022-11-08T18:09:38.986Z,98510.28
2022-11-08T18:12:07.824Z,98512.59
2022-11-08T18:14:36.837Z,98518.41
2022-11-08T18:17:06.313Z,98521.41
2022-11-08T18:19:34.842Z,98522.66
2022-11-08T18:22:06.086Z,98522.16
2022-11-08T18:24:34.545Z,98519.72
2022-11-08T18:27:03.028Z,98512.50
2022-11-08T18:29:31.993Z,98521.69
2022-11-08T18:32:02.007Z,98522.06
2022-11-08T18:34:30.622Z,98525.31
2022-11-08T18:36:58.893Z,98512.28
2022-11-08T18:39:29.206Z,98511.59
2022-11-08T18:42:00.739Z,98516.72
2022-11-08T18:44:29.285Z,98510.16
2022-11-08T18:46:58.669Z,98512.75
2022-11-08T18:49:27.447Z,98511.91
2022-11-08T18:51:56.879Z,98517.63
2022-11-08T18:54:25.207Z,98514.06
2022-11-08T18:56:55.536Z,98517.00
2022-11-08T18:59:23.894Z,98510.56
2022-11-08T19:01:52.474Z,98497.56
2022-11-08T19:04:24.789Z,98497.63
2022-11-08T19:06:55.268Z,98487.22
2022-11-08T19:09:23.501Z,98485.94
2022-11-08T19:11:52.549Z,98489.19
2022-11-08T19:14:22.612Z,98489.66
2022-11-08T19:16:56.093Z,98497.03
2022-11-08T19:19:24.694Z,98490.88
2022-11-08T19:21:53.233Z,98485.94
2022-11-08T19:24:22.016Z,98474.06
2022-11-08T19:26:50.897Z,98485.19
2022-11-08T19:29:20.991Z,98477.84
2022-11-08T19:31:51.621Z,98482.19
2022-11-08T19:34:20.344Z,98481.84
2022-11-08T19:36:55.784Z,98482.97
2022-11-08T19:39:24.920Z,98482.38
2022-11-08T19:41:53.543Z,98490.22
2022-11-08T19:44:24.775Z,98485.28
2022-11-08T19:46:54.771Z,98492.88
2022-11-08T19:49:26.394Z,98489.66
2022-11-08T19:51:54.807Z,98496.44
2022-11-08T19:54:23.571Z,98497.00
2022-11-08T19:57:06.945Z,98488.06
2022-11-08T19:59:36.670Z,98498.38
2022-11-08T20:02:11.100Z,98496.66
2022-11-08T20:04:39.532Z,98508.63
2022-11-08T20:07:07.825Z,98503.34
2022-11-08T20:09:37.179Z,98501.97
2022-11-08T20:12:05.942Z,98503.22
2022-11-08T20:14:37.278Z,98505.28
2022-11-08T20:17:07.841Z,98507.13
2022-11-08T20:19:36.635Z,98512.66
2022-11-08T20:22:05.317Z,98506.28
2022-11-08T20:24:34.170Z,98520.84
2022-11-08T20:27:03.196Z,98518.34
2022-11-08T20:29:31.591Z,98519.41
2022-11-08T20:32:00.611Z,98516.22
2022-11-08T20:34:30.832Z,98514.09
2022-11-08T20:37:00.215Z,98524.97
2022-11-08T20:39:30.943Z,98517.91
2022-11-08T20:42:02.142Z,98518.06
2022-11-08T20:44:31.589Z,98519.03
2022-11-08T20:47:06.213Z,98524.81
2022-11-08T20:49:36.970Z,98527.91
2022-11-08T20:52:06.382Z,98523.72
2022-11-08T20:54:36.248Z,98520.94
2022-11-08T20:57:08.469Z,98521.63
2022-11-08T20:59:37.207Z,98522.59
2022-11-08T21:02:05.551Z,98513.53
2022-11-08T21:04:35.740Z,98514.13
2022-11-08T21:10:07.861Z,98512.75
2022-11-08T21:12:44.161Z,98526.59
2022-11-08T21:15:13.211Z,98517.00
2022-11-08T21:17:41.288Z,98504.69
2022-11-08T21:20:13.782Z,98499.53
2022-11-08T21:22:42.113Z,98512.41
2022-11-08T21:25:10.971Z,98508.50
2022-11-08T21:27:39.129Z,98504.22
2022-11-08T21:30:08.919Z,98513.94
2022-11-08T21:32:38.640Z,98518.06
2022-11-08T21:35:08.330Z,98512.91
2022-11-08T21:37:38.274Z,98512.75
2022-11-08T21:40:08.386Z,98512.66
2022-11-08T21:42:40.258Z,98507.84
2022-11-08T21:45:12.524Z,98520.03
2022-11-08T21:47:41.194Z,98509.41
2022-11-08T21:50:10.283Z,98516.41
2022-11-08T21:52:42.343Z,98534.75
2022-11-08T21:55:11.793Z,98541.16
2022-11-08T21:57:40.557Z,98545.41
2022-11-08T22:00:10.897Z,98549.97
2022-11-08T22:02:40.275Z,98549.47
2022-11-08T22:05:10.154Z,98550.78
2022-11-08T22:07:42.217Z,98552.69
2022-11-08T22:10:12.770Z,98550.75
2022-11-08T22:12:42.392Z,98554.00
2022-11-08T22:15:12.206Z,98547.69
2022-11-08T22:18:07.565Z,98539.22
2022-11-08T22:20:28.934Z,98544.38
2022-11-08T22:22:59.109Z,98549.97
2022-11-08T22:25:27.334Z,98540.81
2022-11-08T22:27:55.979Z,98538.94
2022-11-08T22:30:24.385Z,98536.19
2022-11-08T22:32:53.118Z,98538.34
2022-11-08T22:35:21.127Z,98541.56
2022-11-08T22:37:49.472Z,98543.59
2022-11-08T22:40:21.044Z,98546.19
2022-11-08T22:42:49.625Z,98537.06
2022-11-08T22:45:17.905Z,98534.91
2022-11-08T22:47:46.539Z,98533.50
2022-11-08T22:50:15.082Z,98541.84
2022-11-08T22:52:43.589Z,98538.56
2022-11-08T22:55:12.044Z,98529.53
2022-11-08T22:57:41.991Z,98526.03
2022-11-08T23:00:11.568Z,98531.47
2022-11-08T23:02:40.056Z,98533.41
2022-11-08T23:05:09.648Z,98535.13
2022-11-08T23:07:38.123Z,98521.38
2022-11-08T23:10:07.726Z,98525.41
2022-11-08T23:12:53.408Z,98513.97
2022-11-08T23:15:48.889Z,98501.75
2022-11-08T23:18:17.594Z,98493.94
2022-11-08T23:21:07.209Z,98508.56
2022-11-08T23:23:55.034Z,98504.22
2022-11-08T23:26:38.282Z,98526.53
2022-11-08T23:29:24.076Z,98532.69
2022-11-08T23:31:54.200Z,98546.56
2022-11-08T23:34:22.594Z,98539.22
2022-11-08T23:36:50.771Z,98542.97
2022-11-08T23:39:19.066Z,98532.22
2022-11-08T23:42:12.998Z,98528.09
2022-11-08T23:44:41.950Z,98519.56
2022-11-08T23:47:12.000Z,98517.03
2022-11-08T23:49:40.426Z,98521.72
2022-11-08T23:52:08.756Z,98512.69
2022-11-08T23:54:37.154Z,98491.69
2022-11-08T23:57:05.878Z,98490.72
2022-11-08T23:59:34.799Z,98490.00
